createdAt,value
2017-09-17T00:02:06.503Z,99.90
2017-09-17T00:04:36.017Z,99.90
2017-09-17T00:07:04.295Z,99.90
2017-09-17T00:12:02.143Z,99.90
2017-09-17T00:14:31.195Z,99.90
2017-09-17T00:16:59.479Z,99.90
2017-09-17T00:19:28.982Z,99.90
2017-09-17T00:24:29.571Z,99.90
2017-09-17T00:26:57.938Z,99.90
2017-09-17T00:29:26.219Z,99.90
2017-09-17T00:31:55.276Z,99.90
2017-09-17T00:34:24.387Z,99.90
2017-09-17T00:36:53.463Z,99.90
2017-09-17T00:39:22.881Z,99.90
2017-09-17T00:41:51.210Z,99.90
2017-09-17T00:44:19.888Z,99.90
2017-09-17T00:46:49.675Z,99.90
2017-09-17T00:49:18.775Z,99.90
2017-09-17T00:54:16.555Z,99.90
2017-09-17T00:56:44.900Z,99.90
2017-09-17T00:59:13.175Z,99.90
2017-09-17T01:04:11.011Z,99.90
2017-09-17T01:06:39.311Z,99.90
2017-09-17T01:09:07.597Z,99.90
2017-09-17T01:11:35.975Z,99.90
2017-09-17T01:14:05.076Z,99.90
2017-09-17T01:19:03.323Z,99.90
2017-09-17T01:26:31.835Z,99.90
2017-09-17T01:29:00.115Z,99.90
2017-09-17T01:31:28.407Z,99.90
2017-09-17T01:33:57.942Z,99.90
2017-09-17T01:36:26.235Z,99.90
2017-09-17T01:41:24.503Z,99.90
2017-09-17T01:43:52.795Z,99.90
2017-09-17T01:46:21.087Z,99.90
2017-09-17T01:48:49.447Z,99.90
2017-09-17T01:51:19.252Z,99.90
2017-09-17T01:53:47.556Z,99.90
2017-09-17T01:56:15.932Z,99.90
2017-09-17T01:58:44.984Z,99.90
2017-09-17T02:01:13.268Z,99.90
2017-09-17T02:03:42.759Z,99.90
2017-09-17T02:06:11.446Z,99.90
2017-09-17T02:08:39.749Z,99.90
2017-09-17T02:11:08.383Z,99.90
2017-09-17T02:13:36.680Z,99.90
2017-09-17T02:16:06.131Z,99.90
2017-09-17T02:18:34.483Z,99.90
2017-09-17T02:21:03.908Z,99.90
2017-09-17T02:23:32.284Z,99.90
2017-09-17T02:26:00.619Z,99.90
2017-09-17T02:28:28.898Z,99.90
2017-09-17T02:30:57.193Z,99.90
2017-09-17T02:33:25.541Z,99.90
2017-09-17T02:35:54.600Z,99.90
2017-09-17T02:38:23.680Z,99.90
2017-09-17T02:43:23.049Z,99.90
2017-09-17T02:45:51.333Z,99.90
2017-09-17T02:48:19.664Z,99.90
2017-09-17T02:50:49.447Z,99.90
2017-09-17T02:53:18.495Z,99.90
2017-09-17T02:55:47.616Z,99.90
2017-09-17T02:58:16.292Z,99.90
2017-09-17T03:00:44.580Z,99.90
2017-09-17T03:03:12.951Z,99.90
2017-09-17T03:05:41.247Z,99.90
2017-09-17T03:08:10.688Z,99.90
2017-09-17T03:10:39.035Z,99.90
2017-09-17T03:13:07.344Z,99.90
2017-09-17T03:15:35.643Z,99.90
2017-09-17T03:18:04.783Z,99.90
2017-09-17T03:20:34.571Z,99.90
2017-09-17T03:23:02.843Z,99.90
2017-09-17T03:25:33.852Z,99.90
2017-09-17T03:28:02.127Z,99.90
2017-09-17T03:30:30.804Z,99.90
2017-09-17T03:32:59.547Z,99.90
2017-09-17T03:35:27.823Z,99.90
2017-09-17T03:37:56.103Z,99.90
2017-09-17T03:40:24.872Z,99.90
2017-09-17T03:42:54.671Z,99.90
2017-09-17T03:45:24.100Z,99.90
2017-09-17T03:47:52.439Z,99.90
2017-09-17T03:50:21.479Z,99.90
2017-09-17T03:55:19.315Z,99.90
2017-09-17T03:57:49.098Z,99.90
2017-09-17T04:02:47.699Z,99.90
2017-09-17T04:05:16.734Z,99.90
2017-09-17T04:10:15.727Z,99.90
2017-09-17T04:15:15.339Z,99.90
2017-09-17T04:17:43.619Z,99.90
2017-09-17T04:20:11.890Z,99.90
2017-09-17T04:22:40.223Z,99.90
2017-09-17T04:25:08.511Z,99.90
2017-09-17T04:30:06.393Z,99.90
2017-09-17T04:37:34.913Z,99.90
2017-09-17T04:40:03.191Z,99.90
2017-09-17T04:45:01.026Z,99.90
2017-09-17T04:47:30.443Z,99.90
2017-09-17T04:49:58.721Z,99.90
2017-09-17T04:54:56.570Z,99.90
2017-09-17T04:57:25.257Z,99.90
2017-09-17T04:59:53.583Z,99.90
2017-09-17T05:02:21.859Z,99.90
2017-09-17T05:04:50.136Z,99.90
2017-09-17T05:07:20.294Z,99.90
2017-09-17T05:09:49.704Z,99.90
2017-09-17T05:12:17.983Z,99.90
2017-09-17T05:14:46.306Z,99.90
2017-09-17T05:17:14.583Z,99.90
2017-09-17T05:19:44.003Z,99.90
2017-09-17T05:22:13.102Z,99.90
2017-09-17T05:24:41.395Z,99.90
2017-09-17T05:27:10.447Z,99.90
2017-09-17T05:29:39.958Z,99.90
2017-09-17T05:34:38.877Z,99.90
2017-09-17T05:37:07.225Z,99.90
2017-09-17T05:39:35.537Z,99.90
2017-09-17T05:42:03.827Z,99.90
2017-09-17T05:44:33.315Z,99.90
2017-09-17T05:47:01.599Z,99.90
2017-09-17T05:49:29.897Z,99.90
2017-09-17T05:51:59.724Z,99.90
2017-09-17T05:54:27.992Z,99.90
2017-09-17T05:59:26.619Z,99.90
2017-09-17T06:01:54.914Z,99.90
2017-09-17T06:04:23.198Z,99.90
2017-09-17T06:06:53.100Z,99.90
2017-09-17T06:09:21.375Z,99.90
2017-09-17T06:14:21.598Z,99.90
2017-09-17T06:16:49.875Z,99.90
2017-09-17T06:19:18.919Z,99.90
2017-09-17T06:21:47.255Z,99.90
2017-09-17T06:24:15.543Z,99.90
2017-09-17T06:26:43.823Z,99.90
2017-09-17T06:29:13.660Z,99.90
2017-09-17T06:31:41.948Z,99.90
2017-09-17T06:34:10.243Z,99.90
2017-09-17T06:36:38.615Z,99.90
2017-09-17T06:39:08.062Z,99.90
2017-09-17T06:41:36.395Z,99.90
2017-09-17T06:44:04.748Z,99.90
2017-09-17T06:46:33.798Z,99.90
2017-09-17T06:49:02.088Z,99.90
2017-09-17T06:56:30.579Z,99.90
2017-09-17T06:58:58.920Z,99.90
2017-09-17T07:01:27.973Z,99.90
2017-09-17T07:03:56.647Z,99.90
2017-09-17T07:06:24.982Z,99.90
2017-09-17T07:08:53.263Z,99.90
2017-09-17T07:11:21.551Z,99.90
2017-09-17T07:13:50.655Z,99.90
2017-09-17T07:16:19.707Z,99.90
2017-09-17T07:18:48.754Z,99.90
2017-09-17T07:21:18.219Z,99.90
2017-09-17T07:23:46.504Z,99.90
2017-09-17T07:26:14.798Z,99.90
2017-09-17T07:28:43.933Z,99.90
2017-09-17T07:31:12.215Z,99.90
2017-09-17T07:33:42.048Z,99.90
2017-09-17T07:36:10.403Z,99.90
2017-09-17T07:38:40.209Z,99.90
2017-09-17T07:41:09.272Z,99.90
2017-09-17T07:43:38.751Z,99.90
2017-09-17T07:46:07.053Z,99.90
2017-09-17T07:48:35.335Z,99.90
2017-09-17T07:51:03.675Z,99.90
2017-09-17T07:53:31.950Z,99.90
2017-09-17T07:56:00.231Z,99.90
2017-09-17T07:58:29.714Z,99.90
2017-09-17T08:00:57.986Z,99.90
2017-09-17T08:03:26.271Z,99.90
2017-09-17T08:05:54.641Z,99.90
2017-09-17T08:08:23.680Z,99.90
2017-09-17T08:10:52.744Z,99.90
2017-09-17T08:13:21.831Z,99.90
2017-09-17T08:15:50.102Z,99.90
2017-09-17T08:18:18.380Z,99.90
2017-09-17T08:20:46.728Z,99.90
2017-09-17T08:23:15.021Z,99.90
2017-09-17T08:25:44.807Z,99.90
2017-09-17T08:28:13.178Z,99.90
2017-09-17T08:30:41.488Z,99.90
2017-09-17T08:33:09.788Z,99.90
2017-09-17T08:35:38.205Z,99.90
2017-09-17T08:38:07.264Z,99.90
2017-09-17T08:40:35.549Z,99.90
2017-09-17T08:43:04.315Z,99.90
2017-09-17T08:45:33.355Z,99.90
2017-09-17T08:48:01.648Z,99.90
2017-09-17T08:50:30.731Z,99.90
2017-09-17T08:52:59.777Z,99.90
2017-09-17T08:55:28.042Z,99.90
2017-09-17T08:57:57.148Z,99.90
2017-09-17T09:00:26.560Z,99.90
2017-09-17T09:02:54.840Z,99.90
2017-09-17T09:05:23.170Z,99.90
2017-09-17T09:07:52.208Z,99.90
2017-09-17T09:10:20.478Z,99.90
2017-09-17T09:12:48.811Z,99.90
2017-09-17T09:15:17.087Z,99.90
2017-09-17T09:17:45.371Z,99.90
2017-09-17T09:20:13.713Z,99.90
2017-09-17T09:22:42.001Z,99.90
2017-09-17T09:25:10.304Z,99.90
2017-09-17T09:27:38.647Z,99.90
2017-09-17T09:30:07.335Z,99.90
2017-09-17T09:32:36.407Z,99.90
2017-09-17T09:35:04.759Z,99.20
2017-09-17T09:37:33.799Z,98.70
2017-09-17T09:42:32.295Z,98.20
2017-09-17T09:45:02.080Z,98.60
2017-09-17T09:47:30.356Z,98.20
2017-09-17T09:50:00.345Z,97.00
2017-09-17T09:54:58.522Z,94.70
2017-09-17T09:57:27.603Z,95.40
2017-09-17T09:59:57.387Z,94.20
2017-09-17T10:04:55.631Z,92.70
2017-09-17T10:07:23.936Z,92.50
2017-09-17T10:09:52.219Z,91.60
2017-09-17T10:12:20.966Z,92.60
2017-09-17T10:14:49.251Z,93.00
2017-09-17T10:17:17.529Z,92.00
2017-09-17T10:22:15.755Z,91.00
2017-09-17T10:24:44.036Z,90.50
2017-09-17T10:27:12.362Z,91.20
2017-09-17T10:32:10.154Z,91.10
2017-09-17T10:34:38.543Z,91.30
2017-09-17T10:37:06.844Z,91.70
2017-09-17T10:39:35.171Z,92.00
2017-09-17T10:42:03.512Z,92.30
2017-09-17T10:44:31.783Z,90.70
2017-09-17T10:47:00.065Z,88.90
2017-09-17T10:49:29.549Z,90.50
2017-09-17T10:51:57.822Z,92.00
2017-09-17T10:54:26.103Z,88.70
2017-09-17T10:56:55.201Z,88.80
2017-09-17T10:59:23.490Z,88.60
2017-09-17T11:01:52.659Z,88.90
2017-09-17T11:04:21.762Z,87.50
2017-09-17T11:06:50.039Z,87.00
2017-09-17T11:09:18.319Z,86.10
2017-09-17T11:14:16.147Z,84.90
2017-09-17T11:16:44.422Z,83.40
2017-09-17T11:19:12.794Z,84.40
2017-09-17T11:21:42.582Z,85.20
2017-09-17T11:26:41.226Z,81.70
2017-09-17T11:29:09.528Z,80.00
2017-09-17T11:31:38.623Z,81.80
2017-09-17T11:39:06.038Z,77.60
2017-09-17T11:41:34.344Z,71.10
2017-09-17T11:44:03.419Z,72.20
2017-09-17T11:46:31.694Z,69.90
2017-09-17T11:49:01.547Z,69.60
2017-09-17T11:51:29.859Z,69.10
2017-09-17T11:53:58.535Z,71.80
2017-09-17T11:58:56.516Z,66.80
2017-09-17T12:01:24.796Z,65.20
2017-09-17T12:06:22.622Z,71.30
2017-09-17T12:13:50.620Z,66.50
2017-09-17T12:16:19.660Z,68.50
2017-09-17T12:18:48.004Z,67.20
2017-09-17T12:21:16.283Z,68.60
2017-09-17T12:23:47.103Z,69.10
2017-09-17T12:26:15.445Z,70.30
2017-09-17T12:33:43.562Z,65.00
2017-09-17T12:38:42.163Z,66.00
2017-09-17T12:41:10.549Z,64.90
2017-09-17T12:43:38.842Z,66.00
2017-09-17T12:46:07.139Z,70.00
2017-09-17T12:48:35.524Z,69.20
2017-09-17T12:51:04.942Z,69.20
2017-09-17T12:53:33.220Z,69.10
2017-09-17T12:56:01.551Z,67.00
2017-09-17T12:58:31.335Z,67.60
2017-09-17T13:01:00.392Z,66.20
2017-09-17T13:03:29.407Z,70.20
2017-09-17T13:08:27.182Z,71.90
2017-09-17T13:13:25.571Z,72.40
2017-09-17T13:15:54.246Z,69.20
2017-09-17T13:20:52.474Z,69.50
2017-09-17T13:23:20.759Z,74.90
2017-09-17T13:25:50.222Z,75.80
2017-09-17T13:28:18.510Z,76.10
2017-09-17T13:35:46.970Z,76.10
2017-09-17T13:38:15.263Z,74.30
2017-09-17T13:40:43.627Z,75.00
2017-09-17T13:43:11.945Z,75.90
2017-09-17T13:48:11.019Z,77.70
2017-09-17T13:50:39.312Z,81.30
2017-09-17T13:53:08.403Z,81.30
2017-09-17T13:55:37.551Z,79.40
2017-09-17T13:58:07.055Z,80.30
2017-09-17T14:00:35.350Z,77.90
2017-09-17T14:03:03.676Z,79.80
2017-09-17T14:08:34.647Z,80.00
2017-09-17T14:11:03.253Z,78.60
2017-09-17T14:13:32.651Z,80.20
2017-09-17T14:16:00.978Z,77.20
2017-09-17T14:18:29.249Z,80.20
2017-09-17T14:20:57.533Z,79.30
2017-09-17T14:23:26.675Z,79.60
2017-09-17T14:25:55.715Z,83.80
2017-09-17T14:30:55.043Z,80.40
2017-09-17T14:33:23.323Z,78.80
2017-09-17T14:35:51.655Z,80.20
2017-09-17T14:38:21.114Z,78.50
2017-09-17T14:40:49.398Z,78.90
2017-09-17T14:43:18.451Z,80.00
2017-09-17T14:45:48.330Z,82.70
2017-09-17T14:48:16.607Z,80.50
2017-09-17T14:50:44.903Z,77.20
2017-09-17T14:53:13.249Z,79.10
2017-09-17T14:55:42.345Z,79.10
2017-09-17T14:58:11.412Z,77.00
2017-09-17T15:00:40.921Z,76.00
2017-09-17T15:05:38.735Z,82.90
2017-09-17T15:08:07.109Z,82.00
2017-09-17T15:10:35.782Z,78.20
2017-09-17T15:13:04.059Z,75.50
2017-09-17T15:15:32.785Z,72.80
2017-09-17T15:18:01.068Z,76.10
2017-09-17T15:20:30.111Z,78.90
2017-09-17T15:22:59.579Z,76.60
2017-09-17T15:25:27.859Z,75.70
2017-09-17T15:27:56.144Z,74.60
2017-09-17T15:30:24.942Z,74.00
2017-09-17T15:32:54.732Z,73.90
2017-09-17T15:35:24.150Z,73.40
2017-09-17T15:37:53.255Z,75.50
2017-09-17T15:42:51.039Z,78.70
2017-09-17T15:45:20.143Z,79.80
2017-09-17T15:47:48.419Z,78.60
2017-09-17T15:50:16.696Z,80.40
2017-09-17T15:52:45.783Z,80.40
2017-09-17T15:55:14.830Z,83.00
2017-09-17T15:57:43.131Z,83.20
2017-09-17T16:00:11.476Z,81.90
2017-09-17T16:02:39.774Z,81.10
2017-09-17T16:05:09.223Z,82.30
2017-09-17T16:07:37.572Z,83.00
2017-09-17T16:10:05.847Z,85.90
2017-09-17T16:12:34.119Z,84.70
2017-09-17T16:20:01.455Z,88.30
2017-09-17T16:22:30.545Z,87.70
2017-09-17T16:24:58.823Z,86.80
2017-09-17T16:27:27.113Z,88.00
2017-09-17T16:29:55.438Z,87.50
2017-09-17T16:34:54.346Z,90.10
2017-09-17T16:37:22.683Z,91.00
2017-09-17T16:39:50.966Z,90.70
2017-09-17T16:42:20.742Z,91.20
2017-09-17T16:44:49.063Z,91.20
2017-09-17T16:47:17.338Z,91.10
2017-09-17T16:49:45.640Z,91.50
2017-09-17T16:52:15.527Z,92.30
2017-09-17T16:54:43.819Z,91.70
2017-09-17T16:57:12.128Z,92.00
2017-09-17T16:59:40.478Z,91.60
2017-09-17T17:02:08.804Z,92.00
2017-09-17T17:04:38.603Z,92.80
2017-09-17T17:07:07.995Z,94.10
2017-09-17T17:09:37.039Z,94.30
2017-09-17T17:12:05.323Z,94.00
2017-09-17T17:14:34.415Z,95.20
2017-09-17T17:17:02.692Z,96.00
2017-09-17T17:19:32.540Z,95.70
2017-09-17T17:22:00.939Z,96.50
2017-09-17T17:24:29.621Z,96.50
2017-09-17T17:26:59.028Z,96.90
2017-09-17T17:29:28.114Z,96.90
2017-09-17T17:31:57.167Z,97.20
2017-09-17T17:34:25.439Z,97.40
2017-09-17T17:36:53.759Z,97.20
2017-09-17T17:39:22.039Z,96.30
2017-09-17T17:41:50.316Z,96.40
2017-09-17T17:44:18.663Z,96.80
2017-09-17T17:46:46.959Z,97.30
2017-09-17T17:49:15.626Z,97.20
2017-09-17T17:51:43.973Z,97.80
2017-09-17T17:54:12.263Z,97.90
2017-09-17T17:56:40.568Z,98.70
2017-09-17T18:01:42.517Z,98.60
2017-09-17T18:04:10.895Z,98.90
2017-09-17T18:06:39.193Z,99.00
2017-09-17T18:09:08.620Z,98.70
2017-09-17T18:11:37.732Z,99.30
2017-09-17T18:14:06.781Z,99.70
2017-09-17T18:16:35.051Z,99.00
2017-09-17T18:19:03.383Z,98.90
2017-09-17T18:24:01.168Z,99.90
2017-09-17T18:26:30.635Z,99.70
2017-09-17T18:29:00.423Z,98.20
2017-09-17T18:31:28.707Z,99.40
2017-09-17T18:33:57.040Z,99.10
2017-09-17T18:36:26.461Z,98.90
2017-09-17T18:38:55.866Z,99.20
2017-09-17T18:41:24.958Z,99.90
2017-09-17T18:46:22.735Z,99.90
2017-09-17T18:48:51.055Z,99.90
2017-09-17T18:51:20.471Z,99.90
2017-09-17T18:53:49.515Z,99.90
2017-09-17T18:56:17.850Z,99.90
2017-09-17T18:58:46.132Z,99.90
2017-09-17T19:01:15.559Z,99.90
2017-09-17T19:03:43.914Z,99.90
2017-09-17T19:06:12.204Z,99.90
2017-09-17T19:08:40.495Z,99.90
2017-09-17T19:11:09.616Z,99.90
2017-09-17T19:13:39.252Z,99.90
2017-09-17T19:16:08.696Z,99.90
2017-09-17T19:18:37.015Z,99.90
2017-09-17T19:21:06.055Z,99.90
2017-09-17T19:23:35.515Z,99.90
2017-09-17T19:26:04.979Z,99.90
2017-09-17T19:28:34.443Z,99.90
2017-09-17T19:31:02.726Z,99.90
2017-09-17T19:33:31.087Z,99.90
2017-09-17T19:35:59.384Z,99.90
2017-09-17T19:38:27.681Z,99.90
2017-09-17T19:40:56.059Z,99.90
2017-09-17T19:43:25.103Z,99.90
2017-09-17T19:45:53.383Z,99.90
2017-09-17T19:48:21.711Z,99.90
2017-09-17T19:50:50.011Z,99.90
2017-09-17T19:53:18.287Z,99.90
2017-09-17T19:55:47.408Z,99.90
2017-09-17T19:58:15.687Z,99.90
2017-09-17T20:00:43.979Z,99.90
2017-09-17T20:03:13.817Z,99.90
2017-09-17T20:05:42.109Z,99.90
2017-09-17T20:08:10.411Z,99.90
2017-09-17T20:10:40.302Z,99.90
2017-09-17T20:13:08.594Z,99.90
2017-09-17T20:15:37.692Z,99.90
2017-09-17T20:18:07.199Z,99.90
2017-09-17T20:20:38.543Z,99.90
2017-09-17T20:23:09.385Z,99.90
2017-09-17T20:25:39.974Z,99.90
2017-09-17T20:28:10.765Z,99.90
2017-09-17T20:30:40.649Z,99.90
2017-09-17T20:33:10.635Z,99.90
2017-09-17T20:38:30.414Z,99.90
2017-09-17T20:41:09.857Z,99.90
2017-09-17T20:43:39.534Z,99.90
2017-09-17T20:46:07.978Z,99.90
2017-09-17T20:48:36.580Z,99.90
2017-09-17T20:51:13.357Z,99.90
2017-09-17T20:53:42.770Z,99.90
2017-09-17T20:56:12.613Z,99.90
2017-09-17T20:58:41.417Z,99.90
2017-09-17T21:01:10.687Z,99.90
2017-09-17T21:03:39.504Z,99.90
2017-09-17T21:06:09.130Z,99.90
2017-09-17T21:08:37.791Z,99.90
2017-09-17T21:11:06.478Z,99.90
2017-09-17T21:13:35.022Z,99.90
2017-09-17T21:16:04.333Z,99.90
2017-09-17T21:18:33.574Z,99.90
2017-09-17T21:21:02.846Z,99.90
2017-09-17T21:23:32.057Z,99.90
2017-09-17T21:26:01.414Z,99.90
2017-09-17T21:28:32.599Z,99.90
2017-09-17T21:31:01.091Z,99.90
2017-09-17T21:33:30.503Z,99.90
2017-09-17T21:35:58.806Z,99.90
2017-09-17T21:40:58.159Z,99.90
2017-09-17T21:43:26.451Z,99.90
2017-09-17T21:45:55.560Z,99.90
2017-09-17T21:48:24.606Z,99.90
2017-09-17T21:50:53.780Z,99.90
2017-09-17T21:53:23.615Z,99.90
2017-09-17T21:55:51.899Z,99.90
2017-09-17T21:58:20.943Z,99.90
2017-09-17T22:00:50.047Z,99.90
2017-09-17T22:03:18.324Z,99.90
2017-09-17T22:05:46.611Z,99.90
2017-09-17T22:08:15.343Z,99.90
2017-09-17T22:10:43.678Z,99.90
2017-09-17T22:13:11.979Z,99.90
2017-09-17T22:18:10.277Z,99.90
2017-09-17T22:20:38.610Z,99.90
2017-09-17T22:23:06.943Z,99.90
2017-09-17T22:28:04.727Z,99.90
2017-09-17T22:30:33.067Z,99.90
2017-09-17T22:33:01.436Z,99.90
2017-09-17T22:35:29.731Z,99.90
2017-09-17T22:37:58.060Z,99.90
2017-09-17T22:40:27.108Z,99.90
2017-09-17T22:42:56.150Z,99.90
2017-09-17T22:47:54.759Z,99.90
2017-09-17T22:50:23.436Z,99.90
2017-09-17T22:52:51.757Z,99.90
2017-09-17T22:55:20.038Z,99.90
2017-09-17T23:00:17.878Z,99.90
2017-09-17T23:02:46.159Z,99.90
2017-09-17T23:07:44.408Z,99.90
2017-09-17T23:10:12.707Z,99.90
2017-09-17T23:12:40.997Z,99.90
2017-09-17T23:15:09.343Z,99.90
2017-09-17T23:17:37.667Z,99.90
2017-09-17T23:20:06.723Z,99.90
2017-09-17T23:22:35.080Z,99.90
2017-09-17T23:25:04.135Z,99.90
2017-09-17T23:27:34.167Z,99.90
2017-09-17T23:30:06.919Z,99.90
2017-09-17T23:32:35.819Z,99.90
2017-09-17T23:35:05.312Z,99.90
2017-09-17T23:37:33.631Z,99.90
2017-09-17T23:40:01.907Z,99.90
2017-09-17T23:42:30.194Z,99.90
2017-09-17T23:44:58.544Z,99.90
2017-09-17T23:47:28.011Z,99.90
2017-09-17T23:49:56.299Z,99.90
2017-09-17T23:52:24.636Z,99.90
2017-09-17T23:54:52.912Z,99.90
2017-09-17T23:57:21.187Z,99.90
2017-09-17T23:59:49.520Z,99.90
